createdAt,value
2019-05-15T00:00:23.712Z,31.87
2019-05-15T00:01:23.905Z,31.37
2019-05-15T00:02:23.705Z,32.07
2019-05-15T00:03:23.698Z,31.37
2019-05-15T00:04:23.694Z,31.56
2019-05-15T00:05:23.686Z,32.07
2019-05-15T00:06:23.679Z,31.87
2019-05-15T00:07:23.671Z,31.56
2019-05-15T00:08:23.664Z,31.87
2019-05-15T00:09:23.657Z,32.07
2019-05-15T00:10:23.653Z,31.87
2019-05-15T00:11:23.648Z,32.37
2019-05-15T00:12:23.641Z,31.76
2019-05-15T00:13:23.632Z,31.87
2019-05-15T00:14:23.630Z,32.17
2019-05-15T00:15:23.618Z,31.87
2019-05-15T00:16:23.610Z,31.76
2019-05-15T00:17:23.604Z,31.87
2019-05-15T00:18:23.595Z,32.17
2019-05-15T00:19:23.588Z,31.67
2019-05-15T00:20:23.583Z,31.37
2019-05-15T00:21:23.577Z,31.97
2019-05-15T00:22:23.572Z,32.07
2019-05-15T00:23:23.564Z,31.87
2019-05-15T00:24:23.558Z,32.07
2019-05-15T00:25:23.604Z,31.87
2019-05-15T00:26:23.544Z,31.76
2019-05-15T00:27:23.538Z,32.07
2019-05-15T00:28:23.532Z,32.07
2019-05-15T00:29:23.528Z,31.67
2019-05-15T00:30:23.519Z,32.07
2019-05-15T00:31:23.514Z,32.07
2019-05-15T00:32:23.509Z,32.07
2019-05-15T00:33:23.501Z,31.97
2019-05-15T00:34:23.494Z,32.07
2019-05-15T00:35:23.485Z,32.07
2019-05-15T00:36:23.480Z,31.87
2019-05-15T00:37:23.475Z,31.87
2019-05-15T00:38:23.469Z,31.87
2019-05-15T00:39:23.461Z,32.07
2019-05-15T00:40:23.456Z,32.07
2019-05-15T00:41:23.446Z,31.76
2019-05-15T00:42:23.438Z,32.07
2019-05-15T00:43:23.433Z,31.87
2019-05-15T00:44:23.450Z,31.97
2019-05-15T00:45:23.648Z,31.97
2019-05-15T00:46:23.439Z,32.07
2019-05-15T00:47:23.431Z,31.87
2019-05-15T00:48:23.425Z,31.87
2019-05-15T00:49:23.416Z,31.76
2019-05-15T00:50:23.411Z,31.97
2019-05-15T00:51:23.403Z,31.97
2019-05-15T00:52:23.400Z,31.56
2019-05-15T00:53:23.394Z,31.97
2019-05-15T00:54:23.387Z,31.97
2019-05-15T00:55:23.379Z,32.07
2019-05-15T00:56:23.373Z,31.56
2019-05-15T00:57:23.363Z,31.76
2019-05-15T00:58:23.407Z,32.07
2019-05-15T00:59:26.908Z,31.76
2019-05-15T01:00:50.589Z,31.87
2019-05-15T01:01:50.584Z,32.07
2019-05-15T01:02:50.780Z,31.78
2019-05-15T01:03:50.570Z,31.88
2019-05-15T01:04:50.565Z,32.17
2019-05-15T01:05:50.560Z,32.17
2019-05-15T01:07:50.546Z,31.87
2019-05-15T01:08:50.540Z,31.97
2019-05-15T01:09:50.536Z,31.98
2019-05-15T01:10:50.528Z,31.98
2019-05-15T01:11:50.523Z,31.97
2019-05-15T01:12:50.524Z,31.87
2019-05-15T01:13:50.507Z,31.98
2019-05-15T01:14:50.551Z,31.88
2019-05-15T01:15:50.494Z,32.08
2019-05-15T01:16:50.486Z,31.98
2019-05-15T01:17:50.479Z,31.68
2019-05-15T01:18:50.471Z,31.78
2019-05-15T01:19:50.475Z,31.88
2019-05-15T01:20:50.458Z,31.98
2019-05-15T01:21:50.453Z,31.98
2019-05-15T01:22:50.473Z,31.98
2019-05-15T01:23:50.463Z,31.87
2019-05-15T01:24:50.460Z,31.98
2019-05-15T01:25:50.452Z,31.78
2019-05-15T01:26:50.451Z,31.98
2019-05-15T01:27:50.438Z,32.28
2019-05-15T01:28:50.429Z,31.78
2019-05-15T01:30:18.019Z,31.98
2019-05-15T01:31:19.023Z,31.87
2019-05-15T01:32:19.114Z,31.56
2019-05-15T01:33:18.904Z,31.98
2019-05-15T01:34:18.568Z,31.87
2019-05-15T01:35:18.058Z,32.08
2019-05-15T01:36:19.295Z,32.07
2019-05-15T01:37:18.913Z,31.68
2019-05-15T01:38:18.717Z,31.78
2019-05-15T01:39:18.500Z,31.98
2019-05-15T01:40:18.221Z,31.97
2019-05-15T01:41:18.884Z,32.69
2019-05-15T01:42:18.653Z,31.98
2019-05-15T01:43:18.681Z,31.88
2019-05-15T01:44:17.979Z,32.08
2019-05-15T01:45:18.914Z,31.87
2019-05-15T01:46:19.089Z,31.98
2019-05-15T01:47:18.990Z,31.98
2019-05-15T01:48:18.997Z,31.98
2019-05-15T01:49:18.698Z,31.88
2019-05-15T01:50:18.553Z,31.78
2019-05-15T01:51:18.494Z,31.98
2019-05-15T01:52:18.736Z,31.58
2019-05-15T01:53:18.686Z,31.88
2019-05-15T01:54:18.721Z,31.78
2019-05-15T01:55:18.184Z,31.98
2019-05-15T01:56:18.798Z,31.98
2019-05-15T01:57:18.161Z,32.08
2019-05-15T01:58:18.724Z,31.88
2019-05-15T01:59:18.922Z,31.87
2019-05-15T02:00:18.852Z,31.98
2019-05-15T02:01:19.224Z,31.98
2019-05-15T02:02:18.715Z,31.88
2019-05-15T02:03:18.349Z,31.88
2019-05-15T02:04:19.668Z,31.98
2019-05-15T02:05:18.762Z,32.69
2019-05-15T02:06:44.644Z,32.08
2019-05-15T02:07:44.638Z,31.98
2019-05-15T02:08:44.631Z,31.58
2019-05-15T02:10:44.622Z,31.98
2019-05-15T02:12:44.620Z,31.98
2019-05-15T02:13:44.614Z,31.98
2019-05-15T02:14:44.608Z,31.88
2019-05-15T02:15:44.603Z,31.98
2019-05-15T02:17:44.588Z,31.88
2019-05-15T02:19:11.807Z,32.58
2019-05-15T02:20:11.803Z,31.98
2019-05-15T02:21:11.813Z,31.88
2019-05-15T02:22:11.789Z,31.88
2019-05-15T02:23:12.094Z,31.98
2019-05-15T02:24:11.775Z,31.58
2019-05-15T02:25:11.776Z,31.98
2019-05-15T02:26:11.766Z,31.88
2019-05-15T02:27:11.758Z,31.98
2019-05-15T02:28:11.752Z,31.98
2019-05-15T02:29:16.122Z,31.98
2019-05-15T02:30:21.418Z,31.78
2019-05-15T02:31:39.405Z,32.38
2019-05-15T02:32:39.772Z,31.88
2019-05-15T02:33:39.874Z,31.88
2019-05-15T02:36:09.400Z,31.88
2019-05-15T02:37:08.864Z,31.98
2019-05-15T02:38:09.387Z,31.98
2019-05-15T02:39:08.754Z,31.88
2019-05-15T02:40:06.170Z,32.20
2019-05-15T02:41:09.499Z,31.88
2019-05-15T02:42:09.576Z,31.68
2019-05-15T02:43:09.625Z,31.58
2019-05-15T02:44:06.146Z,32.00
2019-05-15T02:45:09.588Z,31.98
2019-05-15T02:47:09.023Z,32.08
2019-05-15T02:48:08.599Z,31.78
2019-05-15T02:49:08.807Z,32.08
2019-05-15T02:50:06.122Z,32.08
2019-05-15T02:51:09.418Z,31.98
2019-05-15T02:52:09.580Z,31.98
2019-05-15T02:53:09.499Z,31.58
2019-05-15T02:54:09.939Z,32.10
2019-05-15T02:55:08.964Z,31.98
2019-05-15T02:56:33.306Z,31.98
2019-05-15T02:57:33.303Z,32.08
2019-05-15T02:58:33.297Z,31.98
2019-05-15T02:59:33.292Z,32.58
2019-05-15T03:01:10.801Z,31.98
2019-05-15T03:02:10.793Z,31.98
2019-05-15T03:03:10.981Z,31.78
2019-05-15T03:04:10.798Z,31.98
2019-05-15T03:05:10.796Z,32.10
2019-05-15T03:06:10.786Z,32.00
2019-05-15T03:07:10.780Z,32.10
2019-05-15T03:08:10.789Z,31.98
2019-05-15T03:10:10.759Z,32.20
2019-05-15T03:11:10.754Z,31.68
2019-05-15T03:12:40.888Z,31.58
2019-05-15T03:13:39.156Z,31.98
2019-05-15T03:14:39.926Z,31.68
2019-05-15T03:15:40.209Z,32.18
2019-05-15T03:16:39.459Z,31.78
2019-05-15T03:17:40.191Z,31.90
2019-05-15T03:18:39.743Z,32.10
2019-05-15T03:19:39.309Z,31.90
2019-05-15T03:20:38.794Z,32.78
2019-05-15T03:21:38.904Z,32.08
2019-05-15T03:22:40.039Z,31.98
2019-05-15T03:23:40.330Z,32.20
2019-05-15T03:24:39.732Z,31.98
2019-05-15T03:25:40.523Z,31.70
2019-05-15T03:26:39.413Z,32.20
2019-05-15T03:27:39.444Z,32.08
2019-05-15T03:28:39.279Z,31.98
2019-05-15T03:29:40.249Z,32.10
2019-05-15T03:31:07.085Z,31.90
2019-05-15T03:32:22.190Z,31.68
2019-05-15T03:33:36.490Z,32.78
2019-05-15T03:34:38.405Z,31.58
2019-05-15T03:36:02.653Z,31.68
2019-05-15T03:37:03.441Z,32.18
2019-05-15T03:38:00.043Z,31.79
2019-05-15T03:38:59.533Z,31.79
2019-05-15T03:39:59.818Z,31.78
2019-05-15T03:40:59.872Z,32.08
2019-05-15T03:41:59.532Z,31.88
2019-05-15T03:42:59.621Z,31.78
2019-05-15T03:43:59.740Z,31.88
2019-05-15T03:44:59.814Z,32.00
2019-05-15T03:46:01.489Z,32.00
2019-05-15T03:46:59.806Z,31.88
2019-05-15T03:47:59.723Z,32.10
2019-05-15T03:49:00.449Z,32.00
2019-05-15T03:50:00.126Z,32.00
2019-05-15T03:50:59.913Z,32.10
2019-05-15T03:51:59.469Z,31.98
2019-05-15T03:52:59.455Z,31.88
2019-05-15T03:54:00.365Z,32.08
2019-05-15T03:54:59.443Z,32.70
2019-05-15T03:55:59.437Z,31.88
2019-05-15T03:56:59.430Z,31.90
2019-05-15T03:57:59.433Z,32.10
2019-05-15T03:58:59.821Z,31.90
2019-05-15T03:59:59.805Z,32.00
2019-05-15T04:01:00.141Z,31.68
2019-05-15T04:02:00.080Z,32.00
2019-05-15T04:02:59.398Z,32.10
2019-05-15T04:03:59.960Z,31.90
2019-05-15T04:05:01.677Z,32.00
2019-05-15T04:06:00.550Z,32.60
2019-05-15T04:06:59.910Z,32.00
2019-05-15T04:07:59.999Z,31.58
2019-05-15T04:08:59.351Z,31.70
2019-05-15T04:09:59.348Z,32.00
2019-05-15T04:11:29.335Z,32.00
2019-05-15T04:12:29.102Z,31.70
2019-05-15T04:13:29.768Z,31.79
2019-05-15T04:14:29.364Z,31.98
2019-05-15T04:15:53.793Z,31.98
2019-05-15T04:16:53.790Z,32.00
2019-05-15T04:17:53.782Z,32.00
2019-05-15T04:18:53.773Z,31.90
2019-05-15T04:19:53.772Z,31.98
2019-05-15T04:20:53.759Z,31.98
2019-05-15T04:21:53.753Z,32.08
2019-05-15T04:22:53.747Z,31.88
2019-05-15T04:23:53.740Z,31.78
2019-05-15T04:26:53.729Z,31.48
2019-05-15T04:27:53.717Z,31.67
2019-05-15T04:28:53.711Z,31.76
2019-05-15T04:29:53.703Z,31.56
2019-05-15T04:30:53.697Z,32.26
2019-05-15T04:32:01.263Z,30.76
2019-05-15T04:33:20.909Z,30.76
2019-05-15T04:35:20.900Z,31.26
2019-05-15T04:36:20.894Z,31.37
2019-05-15T04:37:20.898Z,31.35
2019-05-15T04:39:20.869Z,31.25
2019-05-15T04:40:20.866Z,31.15
2019-05-15T04:41:20.863Z,32.15
2019-05-15T04:42:20.848Z,32.15
2019-05-15T04:43:20.843Z,32.15
2019-05-15T04:44:20.838Z,30.85
2019-05-15T04:45:20.831Z,31.64
2019-05-15T04:46:20.835Z,31.25
2019-05-15T04:47:20.825Z,30.93
2019-05-15T04:48:20.808Z,31.14
2019-05-15T04:49:50.357Z,31.34
2019-05-15T04:50:49.744Z,31.23
2019-05-15T04:51:49.663Z,31.14
2019-05-15T04:52:50.115Z,31.23
2019-05-15T04:53:50.270Z,31.03
2019-05-15T04:54:49.333Z,31.23
2019-05-15T04:55:49.113Z,31.34
2019-05-15T04:56:48.960Z,31.03
2019-05-15T04:57:50.219Z,30.62
2019-05-15T04:58:50.590Z,31.03
2019-05-15T04:59:49.665Z,30.72
2019-05-15T05:00:49.522Z,30.72
2019-05-15T05:02:49.685Z,30.72
2019-05-15T05:04:49.383Z,30.42
2019-05-15T05:05:49.790Z,30.82
2019-05-15T05:06:49.475Z,30.32
2019-05-15T05:07:49.114Z,30.72
2019-05-15T05:08:49.119Z,30.62
2019-05-15T05:09:48.934Z,30.92
2019-05-15T05:10:48.788Z,30.81
2019-05-15T05:11:48.907Z,30.90
2019-05-15T05:12:50.920Z,30.82
2019-05-15T05:13:48.552Z,30.70
2019-05-15T05:14:48.446Z,30.70
2019-05-15T05:15:49.995Z,30.92
2019-05-15T05:16:48.913Z,30.51
2019-05-15T05:17:48.976Z,30.60
2019-05-15T05:18:48.783Z,30.90
2019-05-15T05:19:50.940Z,30.60
2019-05-15T05:20:48.459Z,30.40
2019-05-15T05:21:47.975Z,30.40
2019-05-15T05:22:48.332Z,30.40
2019-05-15T05:23:48.361Z,30.40
2019-05-15T05:24:47.916Z,30.29
2019-05-15T05:25:49.093Z,30.90
2019-05-15T05:26:49.017Z,30.79
2019-05-15T05:27:48.626Z,30.19
2019-05-15T05:28:48.742Z,30.79
2019-05-15T05:29:48.126Z,30.20
2019-05-15T05:30:48.426Z,30.79
2019-05-15T05:31:49.149Z,30.29
2019-05-15T05:32:48.715Z,30.29
2019-05-15T05:33:48.669Z,30.09
2019-05-15T05:34:48.306Z,30.09
2019-05-15T05:35:48.470Z,30.19
2019-05-15T05:36:48.088Z,30.19
2019-05-15T05:37:48.120Z,30.09
2019-05-15T05:38:49.437Z,29.79
2019-05-15T05:39:48.374Z,30.09
2019-05-15T05:41:48.686Z,30.07
2019-05-15T05:42:48.026Z,29.88
2019-05-15T05:43:48.741Z,29.88
2019-05-15T05:44:48.892Z,29.79
2019-05-15T05:45:49.212Z,30.07
2019-05-15T05:46:49.971Z,29.98
2019-05-15T05:47:48.696Z,30.38
2019-05-15T05:48:48.910Z,29.77
2019-05-15T05:50:49.525Z,30.18
2019-05-15T05:51:48.227Z,30.27
2019-05-15T05:52:49.057Z,30.38
2019-05-15T05:53:48.090Z,30.18
2019-05-15T05:54:49.021Z,30.18
2019-05-15T05:55:49.158Z,30.18
2019-05-15T05:56:48.353Z,30.48
2019-05-15T05:57:48.722Z,30.48
2019-05-15T05:58:49.179Z,30.18
2019-05-15T05:59:48.956Z,30.18
2019-05-15T06:00:48.849Z,29.98
2019-05-15T06:01:48.411Z,30.18
2019-05-15T06:03:49.104Z,30.18
2019-05-15T06:04:47.946Z,30.26
2019-05-15T06:06:14.787Z,29.98
2019-05-15T06:08:14.783Z,30.36
2019-05-15T06:09:14.769Z,30.46
2019-05-15T06:10:14.761Z,30.16
2019-05-15T06:11:14.754Z,30.16
2019-05-15T06:12:14.748Z,30.06
2019-05-15T06:13:14.740Z,30.06
2019-05-15T06:14:14.734Z,29.96
2019-05-15T06:15:14.739Z,30.06
2019-05-15T06:16:14.721Z,30.46
2019-05-15T06:17:14.714Z,30.16
2019-05-15T06:18:14.709Z,30.46
2019-05-15T06:19:14.701Z,30.26
2019-05-15T06:20:14.720Z,30.16
2019-05-15T06:21:14.719Z,30.16
2019-05-15T06:22:14.710Z,30.16
2019-05-15T06:23:54.630Z,30.48
2019-05-15T06:24:48.977Z,30.06
2019-05-15T06:25:48.570Z,30.16
2019-05-15T06:26:48.223Z,30.46
2019-05-15T06:27:48.162Z,30.16
2019-05-15T06:28:49.043Z,30.36
2019-05-15T06:29:48.480Z,30.16
2019-05-15T06:31:14.187Z,30.06
2019-05-15T06:32:14.183Z,30.16
2019-05-15T06:33:14.180Z,30.46
2019-05-15T06:35:14.164Z,30.06
2019-05-15T06:36:14.156Z,30.06
2019-05-15T06:37:14.151Z,30.46
2019-05-15T06:38:14.146Z,30.16
2019-05-15T06:39:14.139Z,30.16
2019-05-15T06:40:14.132Z,30.06
2019-05-15T06:41:14.123Z,30.06
2019-05-15T06:42:14.118Z,29.76
2019-05-15T06:43:14.111Z,30.45
2019-05-15T06:44:14.153Z,29.76
2019-05-15T06:45:14.098Z,30.35
2019-05-15T06:46:14.091Z,30.46
2019-05-15T06:47:14.085Z,30.46
2019-05-15T06:48:14.080Z,30.05
2019-05-15T06:49:14.073Z,30.06
2019-05-15T06:50:14.069Z,30.06
2019-05-15T06:51:14.060Z,30.06
2019-05-15T06:52:14.056Z,29.86
2019-05-15T06:53:14.074Z,30.54
2019-05-15T06:54:14.069Z,30.06
2019-05-15T06:55:14.060Z,30.36
2019-05-15T06:56:14.061Z,29.96
2019-05-15T06:57:14.050Z,30.06
2019-05-15T06:59:14.036Z,30.36
2019-05-15T07:00:14.034Z,30.06
2019-05-15T07:01:41.252Z,30.35
2019-05-15T07:02:41.250Z,30.36
2019-05-15T07:03:41.255Z,30.35
2019-05-15T07:04:41.245Z,30.05
2019-05-15T07:05:41.335Z,29.94
2019-05-15T07:06:41.233Z,30.15
2019-05-15T07:07:41.227Z,30.16
2019-05-15T07:08:41.224Z,30.15
2019-05-15T07:09:41.217Z,30.15
2019-05-15T07:10:41.210Z,30.15
2019-05-15T07:11:41.205Z,29.94
2019-05-15T07:12:41.201Z,30.15
2019-05-15T07:13:41.199Z,29.96
2019-05-15T07:14:41.194Z,30.36
2019-05-15T07:15:41.187Z,30.45
2019-05-15T07:17:09.321Z,30.15
2019-05-15T07:18:08.809Z,30.35
2019-05-15T07:19:08.490Z,30.15
2019-05-15T07:20:08.769Z,29.96
2019-05-15T07:22:09.343Z,29.94
2019-05-15T07:23:08.976Z,30.15
2019-05-15T07:24:09.175Z,30.15
2019-05-15T07:25:08.889Z,30.05
2019-05-15T07:26:09.585Z,30.05
2019-05-15T07:27:08.375Z,30.15
2019-05-15T07:28:08.768Z,30.15
2019-05-15T07:29:08.357Z,30.05
2019-05-15T07:30:11.316Z,30.15
2019-05-15T07:31:11.622Z,30.15
2019-05-15T07:32:08.338Z,30.15
2019-05-15T07:33:08.847Z,30.15
2019-05-15T07:34:08.533Z,30.05
2019-05-15T07:35:08.535Z,30.05
2019-05-15T07:36:08.577Z,30.15
2019-05-15T07:37:09.636Z,30.35
2019-05-15T07:38:08.325Z,29.94
2019-05-15T07:39:08.475Z,29.94
2019-05-15T07:40:08.496Z,29.94
2019-05-15T07:41:10.094Z,29.94
2019-05-15T07:42:08.699Z,30.05
2019-05-15T07:43:09.357Z,29.94
2019-05-15T07:44:08.302Z,29.94
2019-05-15T07:45:08.407Z,29.94
2019-05-15T07:46:08.637Z,30.24
2019-05-15T07:47:08.905Z,30.05
2019-05-15T07:48:09.212Z,29.94
2019-05-15T07:49:09.046Z,30.24
2019-05-15T07:50:08.909Z,30.24
2019-05-15T07:51:11.455Z,30.05
2019-05-15T07:52:08.736Z,29.94
2019-05-15T07:53:08.745Z,29.65
2019-05-15T07:54:35.434Z,29.65
2019-05-15T07:55:35.431Z,30.24
2019-05-15T07:56:35.423Z,29.65
2019-05-15T07:57:35.415Z,29.65
2019-05-15T07:58:35.409Z,30.45
2019-05-15T07:59:35.400Z,29.65
2019-05-15T08:00:35.395Z,29.55
2019-05-15T08:02:37.814Z,29.65
2019-05-15T08:03:35.373Z,29.65
2019-05-15T08:04:35.367Z,29.65
2019-05-15T08:05:35.362Z,29.55
2019-05-15T08:06:35.360Z,29.55
2019-05-15T08:07:35.348Z,29.45
2019-05-15T08:08:35.340Z,29.55
2019-05-15T08:09:35.335Z,29.55
2019-05-15T08:10:35.377Z,29.45
2019-05-15T08:11:35.339Z,29.65
2019-05-15T08:12:35.338Z,29.55
2019-05-15T08:13:35.327Z,29.35
2019-05-15T08:14:35.320Z,29.55
2019-05-15T08:15:35.320Z,29.45
2019-05-15T08:16:35.306Z,29.55
2019-05-15T08:17:35.301Z,29.25
2019-05-15T08:18:35.293Z,29.45
2019-05-15T08:19:35.288Z,29.75
2019-05-15T08:20:35.281Z,29.55
2019-05-15T08:21:35.275Z,29.75
2019-05-15T08:22:38.075Z,29.55
2019-05-15T08:23:35.265Z,29.65
2019-05-15T08:24:35.294Z,29.65
2019-05-15T08:25:35.603Z,29.65
2019-05-15T08:26:35.246Z,29.25
2019-05-15T08:27:35.241Z,29.65
2019-05-15T08:28:35.233Z,29.55
2019-05-15T08:29:35.229Z,29.35
2019-05-15T08:30:35.222Z,29.75
2019-05-15T08:31:35.217Z,29.75
2019-05-15T08:32:35.227Z,29.35
2019-05-15T08:33:35.202Z,29.55
2019-05-15T08:34:35.198Z,29.55
2019-05-15T08:35:35.188Z,29.45
2019-05-15T08:36:35.187Z,29.65
2019-05-15T08:37:35.178Z,29.65
2019-05-15T08:38:35.174Z,29.25
2019-05-15T08:39:35.161Z,29.35
2019-05-15T08:40:35.156Z,29.35
2019-05-15T08:42:35.350Z,29.35
2019-05-15T08:43:35.135Z,29.55
2019-05-15T08:44:35.128Z,29.45
2019-05-15T08:46:35.119Z,29.25
2019-05-15T08:47:35.109Z,29.65
2019-05-15T08:48:35.107Z,29.25
2019-05-15T08:49:35.113Z,29.35
2019-05-15T08:50:35.089Z,29.56
2019-05-15T08:51:35.083Z,29.55
2019-05-15T08:52:35.078Z,29.85
2019-05-15T08:53:35.066Z,29.25
2019-05-15T08:54:35.059Z,29.65
2019-05-15T08:55:35.055Z,29.55
2019-05-15T08:56:35.051Z,29.35
2019-05-15T08:57:35.138Z,29.45
2019-05-15T08:58:35.037Z,29.55
2019-05-15T08:59:35.028Z,29.45
2019-05-15T09:00:35.081Z,29.45
2019-05-15T09:01:35.015Z,29.75
2019-05-15T09:03:35.019Z,29.55
2019-05-15T09:04:35.355Z,29.26
2019-05-15T09:05:35.009Z,29.75
2019-05-15T09:06:35.003Z,29.75
2019-05-15T09:09:02.298Z,29.75
2019-05-15T09:10:02.224Z,29.46
2019-05-15T09:11:02.257Z,29.45
2019-05-15T09:12:02.197Z,29.25
2019-05-15T09:13:02.190Z,29.45
2019-05-15T09:16:02.177Z,29.35
2019-05-15T09:17:02.168Z,29.75
2019-05-15T09:18:14.755Z,29.55
2019-05-15T09:19:04.151Z,29.25
2019-05-15T09:20:02.160Z,29.75
2019-05-15T09:21:02.140Z,29.65
2019-05-15T09:22:02.133Z,29.36
2019-05-15T09:23:29.363Z,29.75
2019-05-15T09:24:29.352Z,29.65
2019-05-15T09:25:29.343Z,29.35
2019-05-15T09:26:29.540Z,29.56
2019-05-15T09:27:29.332Z,29.66
2019-05-15T09:28:58.515Z,29.55
2019-05-15T09:29:59.024Z,29.66
2019-05-15T09:30:58.856Z,29.55
2019-05-15T09:31:58.898Z,29.75
2019-05-15T09:32:58.703Z,29.66
2019-05-15T09:33:58.598Z,29.65
2019-05-15T09:34:59.025Z,29.46
2019-05-15T09:35:58.382Z,29.75
2019-05-15T09:36:59.772Z,29.45
2019-05-15T09:37:58.324Z,29.55
2019-05-15T09:38:58.496Z,29.56
2019-05-15T09:39:58.386Z,29.46
2019-05-15T09:40:58.578Z,29.66
2019-05-15T09:41:57.879Z,29.56
2019-05-15T09:42:57.797Z,29.36
2019-05-15T09:43:57.864Z,29.66
2019-05-15T09:45:23.676Z,29.46
2019-05-15T09:46:23.672Z,29.56
2019-05-15T09:47:23.674Z,29.46
2019-05-15T09:48:23.692Z,29.26
2019-05-15T09:49:23.652Z,29.46
2019-05-15T09:50:23.646Z,29.45
2019-05-15T09:51:50.867Z,30.06
2019-05-15T09:52:50.867Z,29.36
2019-05-15T09:53:50.858Z,29.45
2019-05-15T09:54:50.917Z,29.46
2019-05-15T09:55:50.847Z,29.56
2019-05-15T09:56:50.838Z,29.46
2019-05-15T09:57:50.831Z,29.46
2019-05-15T09:58:50.824Z,29.66
2019-05-15T09:59:50.817Z,29.46
2019-05-15T10:00:53.070Z,29.66
2019-05-15T10:01:50.812Z,29.46
2019-05-15T10:02:50.811Z,29.46
2019-05-15T10:03:50.810Z,29.36
2019-05-15T10:05:05.506Z,30.16
2019-05-15T10:06:20.617Z,29.46
2019-05-15T10:07:19.292Z,29.66
2019-05-15T10:09:18.941Z,29.66
2019-05-15T10:10:19.193Z,29.46
2019-05-15T10:11:19.638Z,29.46
2019-05-15T10:13:18.580Z,30.16
2019-05-15T10:14:19.554Z,29.76
2019-05-15T10:15:18.606Z,30.26
2019-05-15T10:16:19.906Z,30.46
2019-05-15T10:17:18.495Z,30.46
2019-05-15T10:18:19.062Z,30.36
2019-05-15T10:19:18.682Z,29.76
2019-05-15T10:20:18.533Z,29.66
2019-05-15T10:21:18.642Z,30.06
2019-05-15T10:22:18.673Z,30.26
2019-05-15T10:24:18.267Z,30.26
2019-05-15T10:25:18.991Z,30.06
2019-05-15T10:26:19.297Z,29.96
2019-05-15T10:27:19.997Z,29.68
2019-05-15T10:28:18.778Z,30.06
2019-05-15T10:29:17.989Z,30.56
2019-05-15T10:30:18.849Z,30.26
2019-05-15T10:31:19.603Z,30.26
2019-05-15T10:32:19.469Z,30.26
2019-05-15T10:33:19.639Z,30.36
2019-05-15T10:34:18.440Z,29.66
2019-05-15T10:35:25.690Z,30.26
2019-05-15T10:36:45.363Z,30.38
2019-05-15T10:37:45.364Z,30.36
2019-05-15T10:38:45.491Z,30.07
2019-05-15T10:39:45.348Z,30.27
2019-05-15T10:40:59.920Z,29.66
2019-05-15T10:42:12.561Z,29.56
2019-05-15T10:43:12.559Z,30.27
2019-05-15T10:44:39.775Z,29.98
2019-05-15T10:46:12.429Z,30.07
2019-05-15T10:47:09.004Z,30.16
2019-05-15T10:48:09.391Z,30.27
2019-05-15T10:49:08.594Z,30.38
2019-05-15T10:50:07.980Z,29.98
2019-05-15T10:51:10.050Z,30.18
2019-05-15T10:52:08.705Z,29.77
2019-05-15T10:53:10.923Z,30.57
2019-05-15T10:54:08.585Z,30.36
2019-05-15T10:55:09.293Z,30.06
2019-05-15T10:56:08.893Z,29.98
2019-05-15T10:57:08.608Z,30.07
2019-05-15T10:58:16.661Z,29.77
2019-05-15T10:59:08.909Z,29.98
2019-05-15T11:00:07.919Z,29.98
2019-05-15T11:01:11.005Z,30.38
2019-05-15T11:02:08.603Z,30.27
2019-05-15T11:03:08.887Z,30.27
2019-05-15T11:04:34.125Z,30.27
2019-05-15T11:05:43.898Z,29.98
2019-05-15T11:06:38.200Z,30.07
2019-05-15T11:07:34.113Z,30.48
2019-05-15T11:08:34.104Z,30.48
2019-05-15T11:09:34.097Z,29.88
2019-05-15T11:10:34.090Z,30.38
2019-05-15T11:11:34.086Z,29.88
2019-05-15T11:12:34.080Z,30.48
2019-05-15T11:13:34.071Z,30.18
2019-05-15T11:14:34.064Z,30.27
2019-05-15T11:15:34.058Z,30.18
2019-05-15T11:16:34.057Z,30.18
2019-05-15T11:17:34.046Z,30.07
2019-05-15T11:18:34.038Z,30.18
2019-05-15T11:19:36.498Z,30.48
2019-05-15T11:21:01.251Z,30.07
2019-05-15T11:22:01.250Z,30.27
2019-05-15T11:23:01.244Z,30.18
2019-05-15T11:24:01.235Z,29.98
2019-05-15T11:25:01.232Z,30.07
2019-05-15T11:26:01.223Z,30.18
2019-05-15T11:27:01.316Z,30.27
2019-05-15T11:28:01.208Z,30.07
2019-05-15T11:29:01.212Z,30.07
2019-05-15T11:30:01.198Z,30.38
2019-05-15T11:32:01.184Z,30.18
2019-05-15T11:33:01.178Z,30.87
2019-05-15T11:34:01.169Z,30.39
2019-05-15T11:35:04.386Z,30.18
2019-05-15T11:36:05.847Z,30.29
2019-05-15T11:37:01.172Z,30.39
2019-05-15T11:38:01.168Z,30.09
2019-05-15T11:39:01.160Z,30.07
2019-05-15T11:40:01.156Z,30.09
2019-05-15T11:41:01.146Z,30.07
2019-05-15T11:43:01.135Z,30.18
2019-05-15T11:44:01.157Z,30.09
2019-05-15T11:45:01.123Z,30.69
2019-05-15T11:46:01.118Z,30.48
2019-05-15T11:47:01.113Z,30.79
2019-05-15T11:48:01.146Z,29.99
2019-05-15T11:49:01.119Z,30.19
2019-05-15T11:50:01.109Z,30.29
2019-05-15T11:51:01.105Z,30.09
2019-05-15T11:52:01.096Z,30.69
2019-05-15T11:53:01.092Z,29.99
2019-05-15T11:54:01.083Z,30.39
2019-05-15T11:55:01.079Z,29.99
2019-05-15T11:56:01.070Z,30.89
2019-05-15T11:57:01.072Z,29.99
2019-05-15T11:58:01.059Z,30.49
2019-05-15T11:59:01.053Z,30.39
2019-05-15T12:00:01.299Z,30.89
2019-05-15T12:01:01.038Z,29.99
2019-05-15T12:02:01.029Z,30.29
2019-05-15T12:03:01.027Z,30.69
2019-05-15T12:04:01.026Z,30.89
2019-05-15T12:05:01.010Z,30.87
2019-05-15T12:06:14.824Z,30.38
2019-05-15T12:07:28.998Z,30.69
2019-05-15T12:08:29.335Z,30.29
2019-05-15T12:09:28.393Z,29.99
2019-05-15T12:10:28.920Z,29.99
2019-05-15T12:11:36.434Z,30.29
2019-05-15T12:12:55.471Z,30.89
2019-05-15T12:13:55.467Z,30.69
2019-05-15T12:14:55.461Z,30.89
2019-05-15T12:15:55.454Z,30.89
2019-05-15T12:17:06.955Z,30.89
2019-05-15T12:19:22.613Z,30.89
2019-05-15T12:20:23.135Z,30.59
2019-05-15T12:21:22.603Z,30.19
2019-05-15T12:22:22.595Z,30.39
2019-05-15T12:23:22.610Z,30.89
2019-05-15T12:24:22.616Z,30.39
2019-05-15T12:25:22.600Z,30.79
2019-05-15T12:27:22.590Z,30.39
2019-05-15T12:28:22.585Z,30.29
2019-05-15T12:29:22.585Z,29.59
2019-05-15T12:30:50.007Z,30.19
2019-05-15T12:31:49.868Z,30.39
2019-05-15T12:32:49.806Z,30.39
2019-05-15T12:33:49.870Z,30.19
2019-05-15T12:34:49.810Z,30.19
2019-05-15T12:35:50.947Z,30.09
2019-05-15T12:36:56.674Z,30.29
2019-05-15T12:38:18.616Z,30.69
2019-05-15T12:39:21.781Z,30.19
2019-05-15T12:59:59.086Z,30.39
2019-05-15T13:00:59.080Z,30.29
2019-05-15T13:01:59.074Z,30.89
2019-05-15T13:03:28.686Z,29.89
2019-05-15T13:04:28.460Z,30.19
2019-05-15T13:05:29.054Z,30.39
2019-05-15T13:06:28.490Z,30.39
2019-05-15T13:07:28.430Z,30.09
2019-05-15T13:08:28.837Z,30.19
2019-05-15T13:09:27.747Z,30.69
2019-05-15T13:10:28.625Z,30.19
2019-05-15T13:11:28.370Z,30.29
2019-05-15T13:12:28.581Z,30.19
2019-05-15T13:13:28.157Z,30.09
2019-05-15T13:14:28.353Z,30.69
2019-05-15T13:15:28.204Z,30.19
2019-05-15T13:16:28.137Z,30.19
2019-05-15T13:17:26.239Z,30.39
2019-05-15T13:18:28.460Z,30.39
2019-05-15T13:19:28.443Z,30.49
2019-05-15T13:20:28.678Z,29.89
2019-05-15T13:21:26.201Z,30.09
2019-05-15T13:22:28.029Z,30.19
2019-05-15T13:23:28.298Z,30.29
2019-05-15T13:25:28.044Z,30.29
2019-05-15T13:26:27.100Z,30.59
2019-05-15T13:27:26.165Z,30.19
2019-05-15T13:29:28.760Z,30.39
2019-05-15T13:30:26.152Z,30.09
2019-05-15T13:32:28.561Z,30.09
2019-05-15T13:33:26.137Z,30.09
2019-05-15T13:35:28.329Z,29.99
2019-05-15T13:36:28.636Z,30.09
2019-05-15T13:37:29.967Z,30.59
2019-05-15T13:38:26.094Z,30.09
2019-05-15T13:39:28.224Z,30.09
2019-05-15T13:40:36.887Z,29.89
2019-05-15T13:41:53.299Z,30.39
2019-05-15T13:42:53.296Z,30.49
2019-05-15T13:43:53.291Z,30.09
2019-05-15T13:44:53.284Z,30.49
2019-05-15T13:45:53.277Z,30.39
2019-05-15T13:46:53.289Z,30.49
2019-05-15T13:47:53.268Z,30.19
2019-05-15T13:48:53.260Z,30.20
2019-05-15T13:49:53.255Z,29.79
2019-05-15T13:50:53.248Z,30.09
2019-05-15T13:51:53.244Z,30.19
2019-05-15T13:52:53.239Z,30.29
2019-05-15T13:53:53.680Z,30.19
2019-05-15T13:54:53.222Z,30.09
2019-05-15T13:55:53.216Z,30.20
2019-05-15T13:56:53.207Z,29.99
2019-05-15T13:57:53.199Z,30.09
2019-05-15T13:58:53.192Z,29.90
2019-05-15T13:59:53.186Z,29.89
2019-05-15T14:00:53.202Z,30.09
2019-05-15T14:01:53.197Z,29.90
2019-05-15T14:03:53.182Z,30.49
2019-05-15T14:04:53.175Z,29.89
2019-05-15T14:05:53.168Z,30.49
2019-05-15T14:06:53.163Z,30.09
2019-05-15T14:09:20.375Z,30.19
2019-05-15T14:10:20.371Z,29.79
2019-05-15T14:11:21.826Z,30.09